Wetterdaten: Woche 01.03.10 - 07.03.10 (KW9)
Datum Zeit Temp. A. Feuchte A. Luftdruck Regen Wind Richtung Taupunkt Windchill Windben
01.03.2010 00:00 5,9 C 75 % 1005,8 hPa 0,0 l/m 9,7 km/h W-SW 1,8 C 3,3 C 9,7 km/h
01.03.2010 01:00 3,5 C 79 % 1006,6 hPa 0,0 l/m 1,1 km/h SW 0,2 C 3,5 C 1,1 km/h
01.03.2010 02:00 6,3 C 74 % 1007,0 hPa 0,0 l/m 11,9 km/h SW 2,0 C 2,3 C 11,9 km/h
01.03.2010 03:00 6,7 C 73 % 1007,4 hPa 0,0 l/m 12,2 km/h SW 2,2 C 2,6 C 12,2 km/h
01.03.2010 04:00 6,6 C 73 % 1008,0 hPa 0,0 l/m 23,0 km/h W-SW 2,1 C -2,2 C 23,0 km/h
01.03.2010 05:00 5,9 C 74 % 1008,8 hPa 0,0 l/m 12,6 km/h SW 1,6 C 1,4 C 12,6 km/h
01.03.2010 06:00 5,1 C 77 % 1008,9 hPa 0,0 l/m 13,3 km/h W 1,4 C 0,1 C 13,3 km/h
01.03.2010 07:00 4,9 C 78 % 1009,7 hPa 0,0 l/m 5,8 km/h S-SW 1,4 C 4,9 C 5,8 km/h
01.03.2010 08:00 7,8 C 69 % 1010,1 hPa 0,0 l/m 14,8 km/h W-SW 2,5 C 2,6 C 14,8 km/h
01.03.2010 09:00 10,2 C 60 % 1010,1 hPa 0,0 l/m 14,8 km/h W-SW 2,8 C 5,5 C 14,8 km/h
01.03.2010 10:00 12,1 C 59 % 1010,5 hPa 0,0 l/m 9,0 km/h W 4,3 C 10,5 C 9,0 km/h
01.03.2010 11:00 13,0 C 56 % 1010,3 hPa 0,0 l/m 1,4 km/h W-NW 4,4 C 13,0 C 1,4 km/h
01.03.2010 12:00 13,1 C 48 % 1010,1 hPa 0,0 l/m 4,0 km/h W 2,3 C 13,1 C 4,0 km/h
01.03.2010 13:00 13,6 C 43 % 1009,9 hPa 0,0 l/m 2,5 km/h W-NW 1,3 C 13,6 C 2,5 km/h
01.03.2010 14:00 15,7 C 39 % 1009,7 hPa 0,0 l/m 0,0 km/h O-NO 1,8 C 15,7 C 0,0 km/h
01.03.2010 15:00 18,7 C 31 % 1009,7 hPa 0,0 l/m 0,7 km/h NW 1,2 C 18,7 C 0,7 km/h
01.03.2010 16:00 14,4 C 35 % 1010,1 hPa 0,0 l/m 0,0 km/h NO -0,9 C 14,4 C 0,0 km/h
01.03.2010 17:00 8,9 C 47 % 1010,5 hPa 0,0 l/m 0,0 km/h O-SO -1,8 C 8,9 C 0,0 km/h
01.03.2010 18:00 5,9 C 60 % 1011,1 hPa 0,0 l/m 0,0 km/h NO -1,3 C 5,9 C 0,0 km/h
01.03.2010 19:00 5,1 C 65 % 1012,1 hPa 0,0 l/m 0,0 km/h S-SO -0,9 C 5,1 C 0,0 km/h
01.03.2010 20:00 4,5 C 72 % 1012,7 hPa 0,0 l/m 0,0 km/h SO -0,1 C 4,5 C 0,0 km/h
01.03.2010 21:00 4,4 C 73 % 1013,5 hPa 0,0 l/m 0,0 km/h SO -0,0 C 4,4 C 0,0 km/h
01.03.2010 22:00 4,4 C 74 % 1013,9 hPa 0,0 l/m 0,0 km/h SO 0,2 C 4,4 C 0,0 km/h
01.03.2010 23:00 3,9 C 75 % 1014,2 hPa 0,0 l/m 0,0 km/h O -0,1 C 3,9 C 0,0 km/h
02.03.2010 00:00 3,5 C 77 % 1014,8 hPa 0,0 l/m 0,0 km/h O -0,1 C 3,5 C 0,0 km/h
02.03.2010 01:00 2,9 C 80 % 1015,3 hPa 0,0 l/m 2,9 km/h SO -0,2 C 2,9 C 2,9 km/h
02.03.2010 02:00 2,9 C 80 % 1015,8 hPa 0,0 l/m 0,0 km/h S-SO -0,2 C 2,9 C 0,0 km/h
02.03.2010 03:00 3,4 C 80 % 1015,7 hPa 0,0 l/m 0,0 km/h SO 0,3 C 3,4 C 0,0 km/h
02.03.2010 04:00 3,9 C 79 % 1015,8 hPa 0,0 l/m 0,0 km/h W 0,6 C 3,9 C 0,0 km/h
02.03.2010 05:00 3,9 C 81 % 1016,8 hPa 0,0 l/m 0,0 km/h S-SO 0,9 C 3,9 C 0,0 km/h
02.03.2010 06:00 3,8 C 86 % 1016,5 hPa 0,0 l/m 5,0 km/h SO 1,7 C 3,8 C 5,0 km/h
02.03.2010 07:00 4,1 C 87 % 1016,7 hPa 0,4 l/m 0,0 km/h NO 2,1 C 4,1 C 0,0 km/h
02.03.2010 08:00 5,8 C 86 % 1017,5 hPa 0,0 l/m 0,0 km/h W 3,6 C 5,8 C 0,0 km/h
02.03.2010 09:00 6,5 C 83 % 1018,1 hPa 0,0 l/m 0,0 km/h W-NW 3,8 C 6,5 C 0,0 km/h
02.03.2010 10:00 6,1 C 89 % 1018,6 hPa 0,7 l/m 4,7 km/h SW 4,4 C 6,1 C 4,7 km/h
02.03.2010 11:00 7,4 C 85 % 1019,0 hPa 0,4 l/m 10,1 km/h W 5,0 C 4,7 C 10,1 km/h
02.03.2010 12:00 8,1 C 80 % 1018,8 hPa 0,0 l/m 12,2 km/h W-SW 4,9 C 4,2 C 12,2 km/h
02.03.2010 13:00 8,2 C 82 % 1019,2 hPa 0,0 l/m 7,6 km/h W-SW 5,3 C 7,3 C 7,6 km/h
02.03.2010 14:00 7,9 C 82 % 1019,2 hPa 0,0 l/m 6,8 km/h N 5,0 C 7,6 C 6,8 km/h
02.03.2010 15:00 6,9 C 87 % 1019,8 hPa 0,7 l/m 0,4 km/h N-NW 4,9 C 6,9 C 0,4 km/h
02.03.2010 16:00 6,8 C 89 % 1020,3 hPa 0,7 l/m 0,0 km/h N-NO 5,1 C 6,8 C 0,0 km/h
02.03.2010 17:00 6,6 C 86 % 1021,0 hPa 0,0 l/m 0,0 km/h N-NO 4,4 C 6,6 C 0,0 km/h
02.03.2010 18:00 5,8 C 89 % 1021,6 hPa 0,0 l/m 0,0 km/h SO 4,1 C 5,8 C 0,0 km/h
02.03.2010 19:00 5,4 C 90 % 1021,8 hPa 0,0 l/m 0,0 km/h O-SO 3,9 C 5,4 C 0,0 km/h
02.03.2010 20:00 4,8 C 89 % 1021,9 hPa 0,0 l/m 0,0 km/h O-NO 3,1 C 4,8 C 0,0 km/h
02.03.2010 21:00 2,8 C 91 % 1021,7 hPa 0,0 l/m 0,0 km/h SO 1,5 C 2,8 C 0,0 km/h
02.03.2010 22:00 1,8 C 92 % 1021,8 hPa 0,0 l/m 0,0 km/h S-SO 0,6 C 1,8 C 0,0 km/h
02.03.2010 23:00 1,4 C 92 % 1021,8 hPa 0,0 l/m 0,0 km/h SO 0,2 C 1,4 C 0,0 km/h
03.03.2010 00:00 0,7 C 93 % 1022,0 hPa 0,0 l/m 0,4 km/h SO -0,3 C 0,7 C 0,4 km/h
03.03.2010 01:00 -0,2 C 92 % 1021,7 hPa 0,0 l/m 0,0 km/h O -1,3 C -0,2 C 0,0 km/h
03.03.2010 02:00 -0,1 C 93 % 1021,4 hPa 0,0 l/m 0,0 km/h N-NW -1,1 C -0,1 C 0,0 km/h
03.03.2010 03:00 -1,6 C 93 % 1020,8 hPa 0,0 l/m 0,0 km/h NO -2,6 C -1,6 C 0,0 km/h
03.03.2010 04:00 -2,5 C 92 % 1020,5 hPa 0,0 l/m 0,0 km/h NO -3,6 C -2,5 C 0,0 km/h
03.03.2010 05:00 -2,4 C 93 % 1020,0 hPa 0,0 l/m 0,0 km/h NO -3,4 C -2,4 C 0,0 km/h
03.03.2010 06:00 -2,6 C 93 % 1019,3 hPa 0,0 l/m 0,0 km/h NO -3,6 C -2,6 C 0,0 km/h
03.03.2010 07:00 -1,9 C 93 % 1018,4 hPa 0,0 l/m 0,0 km/h NO -2,9 C -1,9 C 0,0 km/h
03.03.2010 08:00 -0,7 C 94 % 1018,2 hPa 0,0 l/m 0,0 km/h NO -1,5 C -0,7 C 0,0 km/h
03.03.2010 09:00 1,0 C 95 % 1017,0 hPa 0,0 l/m 0,0 km/h W-NW 0,3 C 1,0 C 0,0 km/h
03.03.2010 10:00 5,6 C 86 % 1015,9 hPa 0,0 l/m 0,0 km/h SW 3,4 C 5,6 C 0,0 km/h
03.03.2010 11:00 8,4 C 75 % 1015,1 hPa 0,0 l/m 0,0 km/h N-NO 4,2 C 8,4 C 0,0 km/h
03.03.2010 12:00 10,4 C 51 % 1013,2 hPa 0,0 l/m 0,0 km/h O-SO 0,7 C 10,4 C 0,0 km/h
03.03.2010 13:00 11,9 C 43 % 1012,4 hPa 0,0 l/m 0,0 km/h NO -0,3 C 11,9 C 0,0 km/h
03.03.2010 14:00 10,8 C 38 % 1011,6 hPa 0,0 l/m 19,1 km/h N -2,9 C 4,6 C 19,1 km/h
03.03.2010 15:00 9,5 C 45 % 1011,0 hPa 0,0 l/m 0,0 km/h NO -1,8 C 9,5 C 0,0 km/h
03.03.2010 16:00 8,1 C 44 % 1010,5 hPa 0,0 l/m 4,7 km/h NO -3,4 C 8,1 C 4,7 km/h
03.03.2010 17:00 6,4 C 43 % 1010,3 hPa 0,0 l/m 0,0 km/h N-NO -5,2 C 6,4 C 0,0 km/h
03.03.2010 18:00 5,6 C 45 % 1010,4 hPa 0,0 l/m 0,4 km/h NO -5,4 C 5,6 C 0,4 km/h
03.03.2010 19:00 5,1 C 45 % 1009,8 hPa 0,0 l/m 0,0 km/h NO -5,8 C 5,1 C 0,0 km/h
03.03.2010 20:00 4,6 C 40 % 1009,3 hPa 0,0 l/m 1,1 km/h N-NO -7,8 C 4,6 C 1,1 km/h
03.03.2010 21:00 4,4 C 34 % 1008,9 hPa 0,0 l/m 11,5 km/h O-NO -10,1 C 0,4 C 11,5 km/h
03.03.2010 22:00 4,8 C 29 % 1008,5 hPa 0,0 l/m 7,9 km/h O-NO -11,7 C 3,5 C 7,9 km/h
03.03.2010 23:00 4,8 C 28 % 1008,0 hPa 0,0 l/m 6,8 km/h O -12,1 C 4,5 C 6,8 km/h
04.03.2010 00:00 4,7 C 31 % 1007,7 hPa 0,0 l/m 1,1 km/h O-NO -11,0 C 4,7 C 1,1 km/h
04.03.2010 01:00 4,2 C 35 % 1007,3 hPa 0,0 l/m 0,0 km/h N-NO -9,9 C 4,2 C 0,0 km/h
04.03.2010 02:00 3,3 C 43 % 1007,1 hPa 0,0 l/m 0,7 km/h NO -8,1 C 3,3 C 0,7 km/h
04.03.2010 03:00 2,7 C 50 % 1007,3 hPa 0,0 l/m 0,0 km/h N-NO -6,7 C 2,7 C 0,0 km/h
04.03.2010 04:00 1,6 C 56 % 1007,7 hPa 0,0 l/m 0,0 km/h N-NO -6,2 C 1,6 C 0,0 km/h
04.03.2010 05:00 2,0 C 59 % 1007,9 hPa 0,0 l/m 0,7 km/h N-NO -5,2 C 2,0 C 0,7 km/h
04.03.2010 06:00 1,3 C 63 % 1008,4 hPa 0,0 l/m 0,0 km/h N-NO -5,0 C 1,3 C 0,0 km/h
04.03.2010 07:00 1,8 C 61 % 1008,8 hPa 0,0 l/m 0,0 km/h N -4,9 C 1,8 C 0,0 km/h
04.03.2010 08:00 2,9 C 57 % 1009,4 hPa 0,0 l/m 0,7 km/h O-NO -4,8 C 2,9 C 0,7 km/h
04.03.2010 09:00 4,1 C 53 % 1010,0 hPa 0,0 l/m 3,6 km/h N-NO -4,6 C 4,1 C 3,6 km/h
04.03.2010 10:00 6,9 C 47 % 1010,6 hPa 0,0 l/m 6,8 km/h NO -3,6 C 6,6 C 6,8 km/h
04.03.2010 11:00 9,8 C 39 % 1010,9 hPa 0,0 l/m 5,0 km/h O-SO -3,5 C 9,8 C 5,0 km/h
04.03.2010 12:00 10,2 C 38 % 1010,9 hPa 0,0 l/m 7,2 km/h N-NW -3,5 C 9,6 C 7,2 km/h
04.03.2010 13:00 9,2 C 44 % 1010,9 hPa 0,0 l/m 0,4 km/h NO -2,4 C 9,2 C 0,4 km/h
04.03.2010 14:00 10,6 C 42 % 1011,2 hPa 0,0 l/m 5,4 km/h O-SO -1,8 C 10,6 C 5,4 km/h
04.03.2010 15:00 12,8 C 33 % 1011,7 hPa 0,0 l/m 0,0 km/h N-NO -3,1 C 12,8 C 0,0 km/h
04.03.2010 16:00 13,2 C 31 % 1012,8 hPa 0,0 l/m 0,7 km/h O-NO -3,5 C 13,2 C 0,7 km/h
04.03.2010 17:00 8,1 C 41 % 1013,9 hPa 0,0 l/m 2,9 km/h N-NO -4,3 C 8,1 C 2,9 km/h
04.03.2010 18:00 4,1 C 54 % 1015,4 hPa 0,0 l/m 5,8 km/h N-NO -4,4 C 4,1 C 5,8 km/h
04.03.2010 19:00 2,4 C 58 % 1016,4 hPa 0,0 l/m 0,7 km/h NO -5,0 C 2,4 C 0,7 km/h
04.03.2010 20:00 0,2 C 63 % 1017,2 hPa 0,0 l/m 0,0 km/h O-SO -6,0 C 0,2 C 0,0 km/h
04.03.2010 21:00 0,9 C 63 % 1017,8 hPa 0,0 l/m 0,0 km/h NO -5,3 C 0,9 C 0,0 km/h
04.03.2010 22:00 0,9 C 61 % 1018,3 hPa 0,0 l/m 0,0 km/h NO -5,8 C 0,9 C 0,0 km/h
04.03.2010 23:00 -1,4 C 68 % 1018,7 hPa 0,0 l/m 0,0 km/h N-NO -6,5 C -1,4 C 0,0 km/h
05.03.2010 00:00 -1,5 C 70 % 1019,2 hPa 0,0 l/m 0,0 km/h N-NO -6,2 C -1,5 C 0,0 km/h
05.03.2010 01:00 -3,4 C 73 % 1019,9 hPa 0,0 l/m 0,0 km/h SO -7,5 C -3,4 C 0,0 km/h
05.03.2010 02:00 -4,2 C 77 % 1020,2 hPa 0,0 l/m 0,0 km/h O-SO -7,6 C -4,2 C 0,0 km/h
05.03.2010 03:00 -4,8 C 82 % 1020,4 hPa 0,0 l/m 0,0 km/h SO -7,4 C -4,8 C 0,0 km/h
05.03.2010 04:00 -5,1 C 83 % 1020,9 hPa 0,0 l/m 0,0 km/h N-NW -7,5 C -5,1 C 0,0 km/h
05.03.2010 05:00 -4,9 C 85 % 1021,3 hPa 0,0 l/m 0,0 km/h NO -7,0 C -4,9 C 0,0 km/h
05.03.2010 06:00 -5,2 C 84 % 1021,7 hPa 0,0 l/m 0,0 km/h NO -7,5 C -5,2 C 0,0 km/h
05.03.2010 07:00 -4,8 C 87 % 1022,3 hPa 0,0 l/m 0,0 km/h N -6,6 C -4,8 C 0,0 km/h
05.03.2010 08:00 0,4 C 77 % 1022,8 hPa 0,0 l/m 0,0 km/h W -3,1 C 0,4 C 0,0 km/h
05.03.2010 09:00 5,2 C 60 % 1023,5 hPa 0,0 l/m 2,5 km/h N-NO -1,9 C 5,2 C 2,5 km/h
05.03.2010 10:00 8,5 C 43 % 1023,6 hPa 0,0 l/m 9,7 km/h N-NW -3,3 C 6,1 C 5,4 km/h
05.03.2010 11:00 7,4 C 42 % 1023,8 hPa 0,0 l/m 5,2 km/h O-NO -4,7 C 7,4 C 2,9 km/h
05.03.2010 12:00 6,5 C 38 % 1023,7 hPa 0,0 l/m 18,8 km/h NW -6,8 C -0,8 C 10,4 km/h
05.03.2010 13:00 5,9 C 40 % 1023,4 hPa 0,0 l/m 18,8 km/h NO -6,6 C -1,5 C 10,4 km/h
05.03.2010 14:00 8,6 C 34 % 1023,2 hPa 0,0 l/m 0,0 km/h N-NW -6,4 C 8,6 C 0,0 km/h
05.03.2010 15:00 9,3 C 31 % 1023,1 hPa 0,0 l/m 0,0 km/h NO -6,9 C 9,3 C 0,0 km/h
05.03.2010 16:00 9,3 C 27 % 1023,1 hPa 0,0 l/m 5,2 km/h N-NO -8,7 C 9,3 C 2,9 km/h
05.03.2010 17:00 7,5 C 29 % 1023,0 hPa 0,0 l/m 0,0 km/h SO -9,4 C 7,5 C 0,0 km/h
05.03.2010 18:00 -1,6 C 50 % 1023,2 hPa 0,0 l/m 0,0 km/h O -10,6 C -1,6 C 0,0 km/h
05.03.2010 19:00 -3,0 C 57 % 1023,1 hPa 0,0 l/m 0,0 km/h NO -10,3 C -3,0 C 0,0 km/h
05.03.2010 20:00 -3,9 C 63 % 1022,6 hPa 0,0 l/m 0,0 km/h O-SO -9,9 C -3,9 C 0,0 km/h
05.03.2010 21:00 -4,7 C 68 % 1022,5 hPa 0,0 l/m 0,0 km/h O-NO -9,7 C -4,7 C 0,0 km/h
05.03.2010 22:00 -5,1 C 72 % 1022,1 hPa 0,0 l/m 0,0 km/h NO -9,3 C -5,1 C 0,0 km/h
05.03.2010 23:00 -4,2 C 73 % 1021,3 hPa 0,0 l/m 0,0 km/h NO -8,3 C -4,2 C 0,0 km/h
06.03.2010 00:00 -3,2 C 72 % 1020,3 hPa 0,0 l/m 0,0 km/h NO -7,5 C -3,2 C 0,0 km/h
06.03.2010 01:00 -2,4 C 73 % 1019,8 hPa 0,0 l/m 0,0 km/h W -6,6 C -2,4 C 0,0 km/h
06.03.2010 02:00 -0,4 C 65 % 1018,3 hPa 0,0 l/m 2,6 km/h W-SW -6,2 C -0,4 C 1,4 km/h
06.03.2010 03:00 0,1 C 60 % 1017,1 hPa 0,0 l/m 13,6 km/h W-SW -6,7 C -6,0 C 7,6 km/h
06.03.2010 04:00 0,2 C 60 % 1016,1 hPa 0,0 l/m 22,0 km/h S-SW -6,6 C -10,3 C 12,2 km/h
06.03.2010 05:00 0,4 C 64 % 1014,8 hPa 0,0 l/m 46,7 km/h SW -5,6 C -16,6 C 25,9 km/h
06.03.2010 06:00 0,1 C 70 % 1014,0 hPa 0,0 l/m 38,9 km/h W-SW -4,7 C -15,6 C 21,6 km/h
06.03.2010 07:00 -0,4 C 78 % 1013,2 hPa 0,0 l/m 53,1 km/h W -3,8 C -18,7 C 29,5 km/h
06.03.2010 08:00 -1,6 C 91 % 1014,0 hPa 0,0 l/m 20,7 km/h W -2,9 C -12,0 C 11,5 km/h
06.03.2010 09:00 -0,7 C 92 % 1015,5 hPa 0,0 l/m 11,7 km/h W-SW -1,8 C -5,6 C 6,5 km/h
06.03.2010 10:00 0,2 C 92 % 1015,9 hPa 0,0 l/m 20,7 km/h W -0,9 C -9,7 C 11,5 km/h
06.03.2010 11:00 2,4 C 92 % 1016,6 hPa 0,0 l/m 18,1 km/h NW 1,2 C -5,7 C 10,1 km/h
06.03.2010 12:00 1,6 C 91 % 1016,7 hPa 0,4 l/m 0,0 km/h W-SW 0,3 C 1,6 C 0,0 km/h
06.03.2010 13:00 4,4 C 79 % 1017,0 hPa 0,0 l/m 0,0 km/h SW 1,1 C 4,4 C 0,0 km/h
06.03.2010 14:00 7,5 C 75 % 1016,7 hPa 0,4 l/m 0,0 km/h N 3,4 C 7,5 C 0,0 km/h
06.03.2010 15:00 2,9 C 73 % 1017,3 hPa 0,7 l/m 24,6 km/h N-NO -1,5 C -7,7 C 13,7 km/h
06.03.2010 16:00 0,9 C 84 % 1017,5 hPa 0,0 l/m 0,0 km/h N-NO -1,5 C 0,9 C 0,0 km/h
06.03.2010 17:00 -0,1 C 79 % 1018,3 hPa 0,0 l/m 0,0 km/h N-NO -3,3 C -0,1 C 0,0 km/h
06.03.2010 18:00 -1,4 C 80 % 1019,3 hPa 0,0 l/m 0,0 km/h N-NO -4,4 C -1,4 C 0,0 km/h
06.03.2010 19:00 -1,4 C 82 % 1019,8 hPa 0,0 l/m 0,6 km/h O-NO -4,1 C -1,4 C 0,4 km/h
06.03.2010 20:00 -1,9 C 82 % 1020,4 hPa 0,0 l/m 8,4 km/h N-NO -4,6 C -4,0 C 4,7 km/h
06.03.2010 21:00 -2,9 C 77 % 1021,1 hPa 0,0 l/m 0,0 km/h NO -6,4 C -2,9 C 0,0 km/h
06.03.2010 22:00 -3,7 C 76 % 1021,2 hPa 0,0 l/m 5,8 km/h N-NO -7,3 C -3,7 C 3,2 km/h
06.03.2010 23:00 -4,8 C 79 % 1021,7 hPa 0,0 l/m 1,3 km/h NO -7,9 C -4,8 C 0,7 km/h
07.03.2010 00:00 -3,9 C 77 % 1022,2 hPa 0,0 l/m 0,0 km/h N-NO -7,3 C -3,9 C 0,0 km/h
07.03.2010 01:00 -5,4 C 79 % 1022,5 hPa 0,0 l/m 0,0 km/h NO -8,5 C -5,4 C 0,0 km/h
07.03.2010 02:00 -4,7 C 78 % 1022,1 hPa 0,0 l/m 0,0 km/h S-SO -7,9 C -4,7 C 0,0 km/h
07.03.2010 03:00 -7,9 C 81 % 1022,1 hPa 0,0 l/m 0,0 km/h O -10,6 C -7,9 C 0,0 km/h
07.03.2010 04:00 -5,2 C 80 % 1022,2 hPa 0,0 l/m 0,0 km/h O-NO -8,1 C -5,2 C 0,0 km/h
07.03.2010 05:00 -4,7 C 76 % 1022,1 hPa 0,0 l/m 8,4 km/h NO -8,3 C -7,0 C 4,7 km/h
07.03.2010 06:00 -7,9 C 80 % 1022,4 hPa 0,0 l/m 0,0 km/h N-NO -10,7 C -7,9 C 0,0 km/h
07.03.2010 07:00 -4,6 C 77 % 1022,3 hPa 0,0 l/m 14,3 km/h O-NO -8,0 C -12,1 C 7,9 km/h
07.03.2010 08:00 -2,4 C 67 % 1022,7 hPa 0,0 l/m 0,0 km/h N-NO -7,7 C -2,4 C 0,0 km/h
07.03.2010 09:00 1,2 C 59 % 1022,3 hPa 0,0 l/m 1,3 km/h O-SO -5,9 C 1,2 C 0,7 km/h
07.03.2010 10:00 3,6 C 48 % 1022,3 hPa 0,0 l/m 20,1 km/h NO -6,4 C -5,0 C 11,2 km/h
07.03.2010 11:00 3,4 C 47 % 1021,9 hPa 0,0 l/m 22,7 km/h O-SO -6,8 C -6,3 C 12,6 km/h
07.03.2010 12:00 3,6 C 47 % 1021,7 hPa 0,0 l/m 0,0 km/h O-SO -6,6 C 3,6 C 0,0 km/h
07.03.2010 13:00 4,8 C 42 % 1021,5 hPa 0,0 l/m 22,0 km/h N-NO -7,0 C -4,2 C 12,2 km/h
07.03.2010 14:00 7,0 C 39 % 1020,9 hPa 0,0 l/m 8,4 km/h O-SO -6,0 C 5,4 C 4,7 km/h
07.03.2010 15:00 7,8 C 34 % 1020,4 hPa 0,0 l/m 9,7 km/h NO -7,1 C 5,4 C 5,4 km/h
07.03.2010 16:00 6,4 C 34 % 1020,3 hPa 0,0 l/m 4,5 km/h O-NO -8,3 C 6,4 C 2,5 km/h
07.03.2010 17:00 2,8 C 40 % 1020,9 hPa 0,0 l/m 5,2 km/h NO -9,4 C 2,8 C 2,9 km/h
07.03.2010 18:00 -1,6 C 49 % 1020,6 hPa 0,0 l/m 0,0 km/h N -10,9 C -1,6 C 0,0 km/h
07.03.2010 19:00 -2,4 C 50 % 1020,5 hPa 0,0 l/m 0,0 km/h SO -11,4 C -2,4 C 0,0 km/h
07.03.2010 20:00 -2,3 C 49 % 1020,6 hPa 0,0 l/m 0,0 km/h O-NO -11,5 C -2,3 C 0,0 km/h
07.03.2010 21:00 -3,2 C 52 % 1020,7 hPa 0,0 l/m 0,0 km/h NO -11,6 C -3,2 C 0,0 km/h
07.03.2010 22:00 -3,1 C 52 % 1020,8 hPa 0,0 l/m 1,3 km/h NO -11,5 C -3,1 C 0,7 km/h
07.03.2010 23:00 -2,8 C 50 % 1020,5 hPa 0,0 l/m 3,9 km/h SO -11,7 C -2,8 C 2,2 km/h
Min-Datum _ 07.03.10 05.03.10 01.03.10 - 01.03.10 - 03.03.10 06.03.10 01.03.10
_ Min-Zeit 03:53 16:53 00:53 - 14:53 - 23:53 07:53 14:53
Minimum _ -7,9 C 27 % 1005,8 hPa - 0,0 km/h - -12,1 C -18,7 C 0,0 km/h
Max-Datum _ 01.03.10 03.03.10 05.03.10 02.03.10 06.03.10 - 02.03.10 01.03.10 06.03.10
_ Max-Zeit 15:53 09:53 11:53 10:53 07:53 - 13:53 15:53 07:53
Maximum _ 18,7 C 95 % 1023,8 hPa 0,7 l/m 53,1 km/h
W
- 5,3 C 18,7 C 29,5 km/h
W
Durchschnitt _ 3,1 C 66 % 1016,6 hPa #4,3 l/m 4,5 km/h NO -3,5 C 1,7 C 3,2 km/h